Time;durP1;ratioP1;P1;durP2;ratioP2;P2;SDS_P1;SDS_P2;PMS_P1;PMS_P2;Temp;Humidity;BMP_temperature;BMP_pressure;BME280_temperature;BME280_humidity;BME280_pressure;Samples;Min_cycle;Max_cycle;Signal;HPM_P1;HPM_P2
2023/11/23 00:02:19;;;;;;;35.40;19.90;;;;;;;;;;775512;178;922136;-67
2023/11/23 00:04:45;;;;;;;40.27;21.07;;;;;;;;;;781103;179;817478;-62
2023/11/23 00:07:11;;;;;;;38.03;20.30;;;;;;;;;;778138;179;817170;-62
2023/11/23 00:09:37;;;;;;;36.40;21.53;;;;;;;;;;781894;179;721702;-67
2023/11/23 00:12:02;;;;;;;33.93;18.90;;;;;;;;;;781440;179;917125;-62
2023/11/23 00:14:30;;;;;;;34.67;19.43;;;;;;;;;;771135;179;931546;-69
2023/11/23 00:16:54;;;;;;;35.00;20.83;;;;;;;;;;774771;179;824159;-67
2023/11/23 00:19:20;;;;;;;40.10;21.60;;;;;;;;;;783137;178;912647;-62
2023/11/23 00:21:47;;;;;;;33.63;19.80;;;;;;;;;;775770;179;920875;-67
2023/11/23 00:24:11;;;;;;;35.77;19.60;;;;;;;;;;777652;176;915073;-67
2023/11/23 00:26:37;;;;;;;33.50;18.73;;;;;;;;;;777178;179;918179;-67
2023/11/23 00:29:03;;;;;;;36.10;18.97;;;;;;;;;;781072;179;920632;-67
2023/11/23 00:31:29;;;;;;;32.67;18.03;;;;;;;;;;770101;179;919092;-62
2023/11/23 00:33:55;;;;;;;34.30;18.40;;;;;;;;;;769635;180;918952;-62
2023/11/23 00:36:21;;;;;;;30.60;17.30;;;;;;;;;;778039;179;850148;-63
2023/11/23 00:38:47;;;;;;;35.63;19.20;;;;;;;;;;775462;179;921184;-63
2023/11/23 00:41:12;;;;;;;28.60;17.57;;;;;;;;;;774145;179;911001;-62
2023/11/23 00:43:38;;;;;;;35.97;18.77;;;;;;;;;;780911;179;917732;-63
2023/11/23 00:46:04;;;;;;;29.23;16.33;;;;;;;;;;773141;179;919412;-67
2023/11/23 00:48:30;;;;;;;33.93;17.50;;;;;;;;;;778658;179;918937;-66
2023/11/23 00:50:56;;;;;;;32.07;17.67;;;;;;;;;;777766;178;918362;-62
2023/11/23 00:53:22;;;;;;;28.77;16.27;;;;;;;;;;777653;178;918809;-69
2023/11/23 00:55:48;;;;;;;31.60;18.20;;;;;;;;;;778275;178;916879;-68
2023/11/23 00:58:13;;;;;;;29.00;16.90;;;;;;;;;;773495;178;873164;-68
2023/11/23 01:00:39;;;;;;;32.10;18.07;;;;;;;;;;784935;178;918570;-69
2023/11/23 01:03:06;;;;;;;32.60;18.50;;;;;;;;;;771576;178;934144;-61
2023/11/23 01:05:31;;;;;;;31.93;17.27;;;;;;;;;;777139;178;918552;-63
2023/11/23 01:07:57;;;;;;;23.00;15.43;;;;;;;;;;786229;175;919080;-62
2023/11/23 01:10:24;;;;;;;35.03;17.13;;;;;;;;;;776502;178;917213;-69
2023/11/23 01:12:49;;;;;;;33.97;19.20;;;;;;;;;;775896;179;876921;-62
2023/11/23 01:15:14;;;;;;;31.33;16.40;;;;;;;;;;785042;179;813927;-67
2023/11/23 01:17:40;;;;;;;29.70;15.63;;;;;;;;;;773378;177;911739;-69
2023/11/23 01:20:07;;;;;;;26.40;15.20;;;;;;;;;;777119;178;918602;-62
2023/11/23 01:22:32;;;;;;;29.33;16.33;;;;;;;;;;780147;179;817826;-63
2023/11/23 01:24:58;;;;;;;26.37;15.50;;;;;;;;;;770796;181;919524;-69
2023/11/23 01:27:24;;;;;;;28.20;16.60;;;;;;;;;;772405;178;923371;-62
2023/11/23 01:29:50;;;;;;;24.73;16.13;;;;;;;;;;773233;179;923385;-68
2023/11/23 01:32:16;;;;;;;28.33;16.57;;;;;;;;;;782942;179;917756;-63
2023/11/23 01:34:42;;;;;;;32.20;19.40;;;;;;;;;;777362;179;915969;-68
2023/11/23 01:37:08;;;;;;;26.90;14.63;;;;;;;;;;774494;179;850231;-63
2023/11/23 01:39:33;;;;;;;32.03;15.87;;;;;;;;;;780904;179;921416;-62
2023/11/23 01:41:59;;;;;;;24.03;13.60;;;;;;;;;;776980;179;919591;-62
2023/11/23 01:44:25;;;;;;;28.37;15.80;;;;;;;;;;773044;175;918412;-62
2023/11/23 01:46:52;;;;;;;30.40;18.27;;;;;;;;;;782583;178;919755;-67
2023/11/23 01:49:17;;;;;;;27.13;15.68;;;;;;;;;;772516;178;862305;-66
2023/11/23 01:51:43;;;;;;;29.63;13.83;;;;;;;;;;775196;179;919998;-63
2023/11/23 01:54:08;;;;;;;27.57;14.70;;;;;;;;;;780373;179;920680;-62
2023/11/23 01:56:34;;;;;;;26.03;15.37;;;;;;;;;;783072;179;756720;-62
2023/11/23 01:59:00;;;;;;;28.13;14.60;;;;;;;;;;775856;179;917741;-67
2023/11/23 02:01:26;;;;;;;30.12;17.75;;;;;;;;;;777654;179;919550;-68
2023/11/23 02:03:52;;;;;;;28.63;16.30;;;;;;;;;;782551;178;918710;-68
2023/11/23 02:06:19;;;;;;;29.00;17.02;;;;;;;;;;779228;178;813321;-67
2023/11/23 02:08:43;;;;;;;28.13;16.80;;;;;;;;;;777058;177;960434;-62
2023/11/23 02:11:09;;;;;;;26.12;14.13;;;;;;;;;;776707;178;918608;-67
2023/11/23 02:13:35;;;;;;;30.80;16.00;;;;;;;;;;774726;175;918809;-69
2023/11/23 02:16:01;;;;;;;22.37;12.07;;;;;;;;;;779647;179;919299;-66
2023/11/23 02:18:27;;;;;;;29.17;15.57;;;;;;;;;;779523;176;914721;-62
2023/11/23 02:20:53;;;;;;;25.53;14.47;;;;;;;;;;770786;180;919031;-68
2023/11/23 02:23:19;;;;;;;29.67;15.67;;;;;;;;;;778125;179;919984;-68
2023/11/23 02:25:44;;;;;;;25.87;14.27;;;;;;;;;;778998;179;912456;-69
2023/11/23 02:28:10;;;;;;;23.03;14.40;;;;;;;;;;782351;178;630916;-70
2023/11/23 02:30:36;;;;;;;20.70;12.67;;;;;;;;;;770596;179;919080;-69
2023/11/23 02:33:03;;;;;;;21.67;12.77;;;;;;;;;;777414;179;913417;-69
2023/11/23 02:35:28;;;;;;;21.67;13.40;;;;;;;;;;784106;179;818469;-63
2023/11/23 02:37:54;;;;;;;27.50;14.00;;;;;;;;;;780647;179;919396;-62
2023/11/23 02:40:19;;;;;;;25.87;13.37;;;;;;;;;;778281;179;817566;-72
2023/11/23 02:42:45;;;;;;;28.60;15.40;;;;;;;;;;779358;179;930667;-67
2023/11/23 02:45:11;;;;;;;24.77;13.20;;;;;;;;;;779461;179;919063;-63
2023/11/23 02:47:37;;;;;;;23.47;12.33;;;;;;;;;;776800;175;919850;-68
2023/11/23 02:50:04;;;;;;;24.13;14.37;;;;;;;;;;771223;179;943573;-62
2023/11/23 02:52:29;;;;;;;21.70;13.77;;;;;;;;;;776058;179;917080;-62
2023/11/23 02:54:55;;;;;;;20.60;11.60;;;;;;;;;;771651;179;919189;-68
2023/11/23 02:57:21;;;;;;;28.37;13.83;;;;;;;;;;773075;179;919714;-62
2023/11/23 02:59:47;;;;;;;26.90;15.20;;;;;;;;;;782145;179;910991;-63
2023/11/23 03:02:12;;;;;;;29.60;14.10;;;;;;;;;;779191;178;919003;-67
2023/11/23 03:04:38;;;;;;;27.03;14.23;;;;;;;;;;777089;179;918918;-62
2023/11/23 03:07:04;;;;;;;25.13;13.97;;;;;;;;;;784442;179;915898;-69
2023/11/23 03:09:30;;;;;;;32.83;16.07;;;;;;;;;;778213;179;920099;-62
2023/11/23 03:11:56;;;;;;;22.10;13.20;;;;;;;;;;772484;180;919694;-69
2023/11/23 03:14:22;;;;;;;27.27;14.50;;;;;;;;;;775885;178;816347;-68
2023/11/23 03:16:49;;;;;;;27.57;15.20;;;;;;;;;;776045;179;914123;-68
2023/11/23 03:19:14;;;;;;;28.47;15.93;;;;;;;;;;779476;178;854427;-63
2023/11/23 03:21:39;;;;;;;26.80;14.43;;;;;;;;;;781221;178;853470;-69
2023/11/23 03:24:05;;;;;;;23.60;14.83;;;;;;;;;;779239;178;918127;-63
2023/11/23 03:26:31;;;;;;;26.47;15.20;;;;;;;;;;769535;178;919444;-69
2023/11/23 03:28:57;;;;;;;23.80;13.43;;;;;;;;;;778402;178;918710;-63
2023/11/23 03:31:23;;;;;;;32.17;15.10;;;;;;;;;;780373;178;918793;-63
2023/11/23 03:33:49;;;;;;;25.40;15.63;;;;;;;;;;773308;178;824814;-62
2023/11/23 03:36:15;;;;;;;31.30;16.00;;;;;;;;;;774081;179;935687;-63
2023/11/23 03:38:41;;;;;;;26.17;15.00;;;;;;;;;;782682;179;815742;-69
2023/11/23 03:41:06;;;;;;;23.80;14.33;;;;;;;;;;779483;179;713857;-68
2023/11/23 03:43:32;;;;;;;27.85;15.75;;;;;;;;;;777369;179;918630;-62
2023/11/23 03:45:58;;;;;;;27.80;14.77;;;;;;;;;;773073;179;917244;-62
2023/11/23 03:48:24;;;;;;;25.30;15.10;;;;;;;;;;784215;179;871993;-63
2023/11/23 03:50:50;;;;;;;24.33;14.32;;;;;;;;;;780409;179;627105;-69
2023/11/23 03:53:16;;;;;;;26.30;13.70;;;;;;;;;;777828;179;818003;-62
2023/11/23 03:55:41;;;;;;;26.70;14.77;;;;;;;;;;783214;179;617255;-69
2023/11/23 03:58:07;;;;;;;25.00;14.47;;;;;;;;;;783312;179;647465;-69
2023/11/23 04:00:34;;;;;;;26.27;12.90;;;;;;;;;;775765;180;629087;-63
2023/11/23 04:02:59;;;;;;;25.60;13.83;;;;;;;;;;782426;178;635017;-62
2023/11/23 04:05:25;;;;;;;23.65;13.88;;;;;;;;;;779980;179;920026;-66
2023/11/23 04:07:51;;;;;;;27.53;14.60;;;;;;;;;;775156;178;918654;-69
2023/11/23 04:10:17;;;;;;;22.83;14.30;;;;;;;;;;778555;179;816391;-63
2023/11/23 04:12:42;;;;;;;25.43;14.87;;;;;;;;;;764918;180;914920;-62
2023/11/23 04:15:09;;;;;;;32.90;14.93;;;;;;;;;;774947;178;915375;-70
2023/11/23 04:17:34;;;;;;;28.23;15.77;;;;;;;;;;776311;175;920531;-68
2023/11/23 04:20:00;;;;;;;26.83;15.27;;;;;;;;;;780220;179;919180;-61
2023/11/23 04:22:26;;;;;;;27.50;15.23;;;;;;;;;;773106;179;920368;-61
2023/11/23 04:24:52;;;;;;;29.70;15.93;;;;;;;;;;775014;180;817566;-61
2023/11/23 04:27:18;;;;;;;28.40;14.43;;;;;;;;;;781515;178;918605;-63
2023/11/23 04:29:44;;;;;;;29.77;15.57;;;;;;;;;;779214;178;918930;-70
2023/11/23 04:32:11;;;;;;;26.70;14.60;;;;;;;;;;770233;178;918494;-62
2023/11/23 04:34:37;;;;;;;32.97;17.90;;;;;;;;;;779515;178;918482;-67
2023/11/23 04:37:03;;;;;;;29.40;16.10;;;;;;;;;;779407;175;919482;-69
2023/11/23 04:39:29;;;;;;;31.20;16.80;;;;;;;;;;774830;179;920026;-62
2023/11/23 04:41:55;;;;;;;29.60;17.13;;;;;;;;;;774819;178;919450;-68
2023/11/23 04:44:21;;;;;;;26.87;15.93;;;;;;;;;;781656;178;751238;-61
2023/11/23 04:46:47;;;;;;;36.27;17.43;;;;;;;;;;776592;178;911823;-64
2023/11/23 04:49:13;;;;;;;35.40;19.23;;;;;;;;;;771189;178;922508;-62
2023/11/23 04:51:38;;;;;;;39.53;17.10;;;;;;;;;;781541;179;921248;-63
2023/11/23 04:54:04;;;;;;;32.93;17.33;;;;;;;;;;778599;179;915941;-61
2023/11/23 04:56:30;;;;;;;27.93;17.47;;;;;;;;;;772374;179;908233;-62
2023/11/23 04:58:56;;;;;;;34.67;16.77;;;;;;;;;;779038;178;911475;-68
2023/11/23 05:01:22;;;;;;;29.50;16.93;;;;;;;;;;779961;178;888125;-68
2023/11/23 05:03:48;;;;;;;35.30;17.87;;;;;;;;;;776162;177;916266;-62
2023/11/23 05:06:15;;;;;;;33.70;18.03;;;;;;;;;;779028;179;915952;-67
2023/11/23 05:08:39;;;;;;;31.27;16.77;;;;;;;;;;777737;179;917080;-62
2023/11/23 05:11:05;;;;;;;37.17;19.17;;;;;;;;;;773562;179;816056;-63
2023/11/23 05:13:32;;;;;;;34.10;17.63;;;;;;;;;;775570;179;916627;-67
2023/11/23 05:15:57;;;;;;;38.87;19.30;;;;;;;;;;782090;179;863630;-62
2023/11/23 05:18:23;;;;;;;38.50;17.50;;;;;;;;;;777958;179;919833;-67
2023/11/23 05:20:49;;;;;;;36.50;18.30;;;;;;;;;;778260;179;917740;-62
2023/11/23 05:23:14;;;;;;;34.90;17.40;;;;;;;;;;779460;179;919016;-61
2023/11/23 05:25:40;;;;;;;32.40;16.77;;;;;;;;;;771457;179;928728;-62
2023/11/23 05:28:06;;;;;;;35.45;18.60;;;;;;;;;;773218;179;918162;-67
2023/11/23 05:30:32;;;;;;;34.37;18.40;;;;;;;;;;773135;179;919504;-62
2023/11/23 05:33:00;;;;;;;34.87;19.30;;;;;;;;;;775020;180;792319;-67
2023/11/23 05:35:24;;;;;;;39.43;19.47;;;;;;;;;;776873;179;626036;-61
2023/11/23 05:37:49;;;;;;;31.43;18.53;;;;;;;;;;780142;176;885740;-62
2023/11/23 05:40:16;;;;;;;34.63;18.50;;;;;;;;;;784270;179;622737;-67
2023/11/23 05:42:41;;;;;;;31.97;18.50;;;;;;;;;;785721;178;623602;-69
2023/11/23 05:45:08;;;;;;;37.00;18.33;;;;;;;;;;784010;178;917700;-63
2023/11/23 05:47:33;;;;;;;36.07;18.57;;;;;;;;;;783021;177;851863;-62
2023/11/23 05:50:01;;;;;;;39.87;20.60;;;;;;;;;;775433;178;877656;-68
2023/11/23 05:52:25;;;;;;;32.50;18.30;;;;;;;;;;777196;178;907843;-66
2023/11/23 05:54:51;;;;;;;37.70;19.30;;;;;;;;;;787390;178;619788;-66
2023/11/23 05:57:17;;;;;;;37.20;18.03;;;;;;;;;;782482;178;633499;-64
2023/11/23 05:59:43;;;;;;;36.83;18.90;;;;;;;;;;775354;179;917667;-62
2023/11/23 06:02:09;;;;;;;34.10;17.27;;;;;;;;;;776348;178;1020637;-62
2023/11/23 06:04:34;;;;;;;33.70;19.15;;;;;;;;;;781008;179;910650;-62
2023/11/23 06:07:01;;;;;;;33.30;17.27;;;;;;;;;;775850;179;855778;-68
2023/11/23 06:09:27;;;;;;;37.03;20.13;;;;;;;;;;773501;179;989997;-67
2023/11/23 06:11:53;;;;;;;43.00;17.20;;;;;;;;;;776795;179;916289;-68
2023/11/23 06:14:19;;;;;;;32.77;17.63;;;;;;;;;;776238;179;925032;-61
2023/11/23 06:16:44;;;;;;;41.77;20.90;;;;;;;;;;776268;179;915417;-62
2023/11/23 06:19:11;;;;;;;31.55;17.15;;;;;;;;;;782208;179;918730;-66
2023/11/23 06:21:36;;;;;;;32.90;17.60;;;;;;;;;;776875;179;919650;-66
2023/11/23 06:24:03;;;;;;;32.67;18.12;;;;;;;;;;775234;179;919403;-66
2023/11/23 06:26:28;;;;;;;38.63;19.83;;;;;;;;;;779281;179;917517;-62
2023/11/23 06:28:54;;;;;;;43.90;19.70;;;;;;;;;;775560;180;916594;-67
2023/11/23 06:31:20;;;;;;;36.40;19.43;;;;;;;;;;778661;178;921013;-61
2023/11/23 06:33:45;;;;;;;37.83;17.20;;;;;;;;;;771192;179;1021244;-61
2023/11/23 06:36:11;;;;;;;35.87;18.60;;;;;;;;;;781018;179;817401;-61
2023/11/23 06:38:37;;;;;;;30.63;17.93;;;;;;;;;;775977;179;823320;-66
2023/11/23 06:41:03;;;;;;;39.47;19.80;;;;;;;;;;768164;179;918339;-64
2023/11/23 06:43:29;;;;;;;41.27;19.10;;;;;;;;;;778958;176;854871;-61
2023/11/23 06:45:55;;;;;;;34.03;17.53;;;;;;;;;;771324;179;918709;-67
2023/11/23 06:48:21;;;;;;;31.77;17.87;;;;;;;;;;777847;179;918957;-67
2023/11/23 06:50:46;;;;;;;30.80;17.40;;;;;;;;;;781289;179;920199;-66
2023/11/23 06:53:13;;;;;;;35.17;18.67;;;;;;;;;;774366;178;816716;-62
2023/11/23 06:55:38;;;;;;;34.07;19.73;;;;;;;;;;780816;178;918769;-66
2023/11/23 06:58:05;;;;;;;30.10;17.07;;;;;;;;;;778084;178;919431;-65
2023/11/23 07:00:30;;;;;;;34.27;18.33;;;;;;;;;;777375;179;944605;-62
2023/11/23 07:02:56;;;;;;;34.77;18.70;;;;;;;;;;772247;178;919440;-65
2023/11/23 07:05:23;;;;;;;34.33;17.73;;;;;;;;;;778839;178;816299;-66
2023/11/23 07:07:47;;;;;;;30.40;17.23;;;;;;;;;;780993;178;847494;-61
2023/11/23 07:10:14;;;;;;;29.47;17.77;;;;;;;;;;777943;179;916561;-65
2023/11/23 07:12:41;;;;;;;33.03;16.63;;;;;;;;;;775936;179;935368;-66
2023/11/23 07:15:07;;;;;;;29.37;17.03;;;;;;;;;;780242;179;819135;-65
2023/11/23 07:17:33;;;;;;;28.83;15.43;;;;;;;;;;776578;179;927652;-62
2023/11/23 07:19:58;;;;;;;31.87;16.57;;;;;;;;;;776749;179;917686;-62
2023/11/23 07:22:24;;;;;;;34.60;17.97;;;;;;;;;;775997;179;921250;-66
2023/11/23 07:24:50;;;;;;;31.33;16.43;;;;;;;;;;782150;178;916446;-62
2023/11/23 07:27:17;;;;;;;29.60;17.67;;;;;;;;;;771672;179;918261;-66
2023/11/23 07:29:43;;;;;;;34.13;18.43;;;;;;;;;;779144;179;919899;-66
2023/11/23 07:32:10;;;;;;;32.93;17.33;;;;;;;;;;782977;179;918501;-64
2023/11/23 07:34:36;;;;;;;35.73;18.90;;;;;;;;;;776394;179;813594;-63
2023/11/23 07:37:02;;;;;;;29.40;16.40;;;;;;;;;;778011;176;820472;-66
2023/11/23 07:39:28;;;;;;;28.37;14.60;;;;;;;;;;772834;179;803901;-65
2023/11/23 07:41:54;;;;;;;29.60;17.00;;;;;;;;;;775381;179;920356;-62
2023/11/23 07:44:20;;;;;;;23.53;14.73;;;;;;;;;;778848;179;918284;-64
2023/11/23 07:46:46;;;;;;;28.57;15.60;;;;;;;;;;776315;179;938393;-63
2023/11/23 07:49:12;;;;;;;30.27;18.00;;;;;;;;;;776959;179;913473;-64
2023/11/23 07:51:38;;;;;;;32.47;17.57;;;;;;;;;;777423;179;915125;-64
2023/11/23 07:54:04;;;;;;;29.33;15.30;;;;;;;;;;770934;179;923535;-66
2023/11/23 07:56:30;;;;;;;28.57;17.70;;;;;;;;;;778814;179;917591;-65
2023/11/23 07:58:56;;;;;;;29.40;14.63;;;;;;;;;;776043;177;849126;-64
2023/11/23 08:01:21;;;;;;;34.40;18.40;;;;;;;;;;777028;176;919574;-64
2023/11/23 08:03:47;;;;;;;30.00;17.60;;;;;;;;;;785005;177;818189;-66
2023/11/23 08:06:14;;;;;;;29.83;16.73;;;;;;;;;;774603;178;918636;-66
2023/11/23 08:08:39;;;;;;;31.53;17.57;;;;;;;;;;781111;177;919263;-66
2023/11/23 08:11:05;;;;;;;31.70;17.57;;;;;;;;;;776308;178;803203;-64
2023/11/23 08:13:31;;;;;;;30.20;16.50;;;;;;;;;;776766;179;817305;-67
2023/11/23 08:15:57;;;;;;;29.05;15.00;;;;;;;;;;775949;178;918833;-66
2023/11/23 08:18:24;;;;;;;30.50;16.37;;;;;;;;;;779024;178;915395;-66
2023/11/23 08:20:49;;;;;;;41.13;15.93;;;;;;;;;;781888;179;920866;-66
2023/11/23 08:23:14;;;;;;;34.07;18.97;;;;;;;;;;776285;179;858089;-67
2023/11/23 08:25:40;;;;;;;25.77;14.20;;;;;;;;;;776168;179;916732;-67
2023/11/23 08:28:06;;;;;;;24.53;13.53;;;;;;;;;;781701;178;919978;-67
2023/11/23 08:30:32;;;;;;;32.27;15.97;;;;;;;;;;775415;179;919318;-66
2023/11/23 08:32:59;;;;;;;28.40;13.47;;;;;;;;;;773509;176;912628;-66
2023/11/23 08:35:24;;;;;;;25.52;14.43;;;;;;;;;;778453;179;916638;-66
2023/11/23 08:37:50;;;;;;;26.23;12.90;;;;;;;;;;774990;180;821359;-65
2023/11/23 08:40:16;;;;;;;28.17;13.20;;;;;;;;;;768947;179;840648;-65
2023/11/23 08:42:42;;;;;;;28.27;12.60;;;;;;;;;;775995;175;926279;-65
2023/11/23 08:45:08;;;;;;;28.00;15.37;;;;;;;;;;783291;179;919165;-65
2023/11/23 08:47:34;;;;;;;28.20;14.83;;;;;;;;;;779230;178;862598;-65
2023/11/23 08:50:00;;;;;;;19.47;13.33;;;;;;;;;;774990;179;921897;-69
2023/11/23 08:52:27;;;;;;;22.37;12.80;;;;;;;;;;780505;179;818008;-68
2023/11/23 08:54:52;;;;;;;21.87;12.30;;;;;;;;;;775895;179;1011988;-66
2023/11/23 08:57:17;;;;;;;23.53;13.50;;;;;;;;;;777862;179;813294;-69
2023/11/23 08:59:43;;;;;;;24.33;13.90;;;;;;;;;;785434;178;914950;-69
2023/11/23 09:02:09;;;;;;;24.60;14.13;;;;;;;;;;779000;177;915112;-67
2023/11/23 09:04:36;;;;;;;23.80;12.77;;;;;;;;;;780419;179;902178;-67
2023/11/23 09:07:01;;;;;;;24.93;13.20;;;;;;;;;;770612;179;1021120;-64
2023/11/23 09:09:27;;;;;;;21.83;11.27;;;;;;;;;;778652;179;915832;-65
2023/11/23 09:11:52;;;;;;;19.83;12.37;;;;;;;;;;773035;178;920446;-66
2023/11/23 09:14:18;;;;;;;15.40;8.20;;;;;;;;;;778712;176;915912;-68
2023/11/23 09:16:44;;;;;;;20.63;12.13;;;;;;;;;;782002;178;792631;-64
2023/11/23 09:19:10;;;;;;;22.03;11.03;;;;;;;;;;775828;178;915768;-65
2023/11/23 09:21:36;;;;;;;18.67;10.70;;;;;;;;;;774193;178;1019830;-66
2023/11/23 09:24:05;;;;;;;21.48;13.23;;;;;;;;;;784653;178;943863;-64
2023/11/23 09:26:28;;;;;;;24.57;13.57;;;;;;;;;;776814;178;918303;-65
2023/11/23 09:28:54;;;;;;;22.57;12.70;;;;;;;;;;776213;176;916839;-67
2023/11/23 09:31:20;;;;;;;23.45;11.98;;;;;;;;;;778536;178;918628;-66
2023/11/23 09:33:46;;;;;;;24.50;14.20;;;;;;;;;;772651;180;918122;-67
2023/11/23 09:36:14;;;;;;;22.60;11.63;;;;;;;;;;779846;178;920570;-66
2023/11/23 09:38:38;;;;;;;22.23;11.33;;;;;;;;;;774268;179;916626;-69
2023/11/23 09:41:04;;;;;;;21.77;12.90;;;;;;;;;;779225;179;909613;-68
2023/11/23 09:43:31;;;;;;;18.77;11.82;;;;;;;;;;774491;179;916260;-68
2023/11/23 09:45:56;;;;;;;22.30;11.67;;;;;;;;;;776998;178;918814;-68
2023/11/23 09:48:23;;;;;;;24.43;12.83;;;;;;;;;;782977;179;817112;-65
2023/11/23 09:50:47;;;;;;;25.27;12.83;;;;;;;;;;777513;179;918345;-68
2023/11/23 09:53:13;;;;;;;20.83;11.37;;;;;;;;;;776575;179;880714;-66
2023/11/23 09:55:40;;;;;;;21.87;13.30;;;;;;;;;;783305;179;918274;-66
2023/11/23 09:58:06;;;;;;;24.53;13.43;;;;;;;;;;776072;179;917402;-69
2023/11/23 10:00:35;;;;;;;22.50;13.80;;;;;;;;;;776875;178;830394;-69
2023/11/23 10:02:57;;;;;;;20.63;12.00;;;;;;;;;;777639;178;916075;-68
2023/11/23 10:05:23;;;;;;;22.30;12.77;;;;;;;;;;784358;179;913868;-68
2023/11/23 10:07:52;;;;;;;24.50;13.90;;;;;;;;;;777880;179;915205;-68
2023/11/23 10:10:15;;;;;;;23.02;14.10;;;;;;;;;;769599;179;918596;-66
2023/11/23 10:12:41;;;;;;;27.13;13.23;;;;;;;;;;779658;179;920895;-67
2023/11/23 10:15:10;;;;;;;26.20;13.33;;;;;;;;;;773820;179;918941;-64
2023/11/23 10:17:36;;;;;;;19.57;11.40;;;;;;;;;;772783;180;914374;-66
2023/11/23 10:20:04;;;;;;;22.07;12.23;;;;;;;;;;774718;179;920544;-67
2023/11/23 10:22:30;;;;;;;26.80;14.10;;;;;;;;;;770226;176;938659;-67
2023/11/23 10:24:56;;;;;;;27.73;14.43;;;;;;;;;;780867;176;818471;-67
2023/11/23 10:27:22;;;;;;;23.70;12.10;;;;;;;;;;778571;177;918299;-67
2023/11/23 10:29:48;;;;;;;27.40;14.73;;;;;;;;;;776985;178;911893;-67
2023/11/23 10:32:14;;;;;;;21.23;12.00;;;;;;;;;;778372;177;921573;-65
2023/11/23 10:34:40;;;;;;;20.90;11.77;;;;;;;;;;777489;178;916269;-66
2023/11/23 10:37:06;;;;;;;22.73;13.20;;;;;;;;;;780072;178;915774;-66
2023/11/23 10:39:31;;;;;;;19.23;10.73;;;;;;;;;;778778;178;903062;-66
2023/11/23 10:41:59;;;;;;;21.93;11.27;;;;;;;;;;773746;178;917974;-67
2023/11/23 10:44:23;;;;;;;18.67;11.75;;;;;;;;;;775238;179;917103;-66
2023/11/23 10:46:52;;;;;;;21.10;11.03;;;;;;;;;;774647;180;922825;-67
2023/11/23 10:49:15;;;;;;;22.98;12.43;;;;;;;;;;772006;179;920729;-66
2023/11/23 10:51:42;;;;;;;21.50;11.20;;;;;;;;;;779397;179;818306;-66
2023/11/23 10:54:07;;;;;;;20.80;11.63;;;;;;;;;;783870;179;914902;-68
2023/11/23 10:56:32;;;;;;;19.13;11.30;;;;;;;;;;771714;179;916819;-67
2023/11/23 10:58:58;;;;;;;21.00;10.67;;;;;;;;;;779653;178;813087;-65
2023/11/23 11:01:25;;;;;;;15.88;10.90;;;;;;;;;;778071;179;849170;-67
2023/11/23 11:03:50;;;;;;;21.63;10.63;;;;;;;;;;775827;179;919426;-67
2023/11/23 11:06:17;;;;;;;17.73;10.30;;;;;;;;;;773519;179;921726;-64
2023/11/23 11:08:44;;;;;;;17.97;9.30;;;;;;;;;;776520;176;915568;-68
2023/11/23 11:11:11;;;;;;;17.20;9.33;;;;;;;;;;775336;180;918937;-67
2023/11/23 11:13:37;;;;;;;15.93;9.40;;;;;;;;;;773117;178;918912;-66
2023/11/23 11:16:04;;;;;;;15.70;9.27;;;;;;;;;;777037;179;918775;-67
2023/11/23 11:18:30;;;;;;;17.60;9.80;;;;;;;;;;785223;179;918555;-67
2023/11/23 11:21:00;;;;;;;16.70;9.10;;;;;;;;;;775700;179;919095;-66
2023/11/23 11:23:40;;;;;;;18.93;9.67;;;;;;;;;;773737;179;917955;-64
2023/11/23 11:26:06;;;;;;;17.43;9.63;;;;;;;;;;778965;179;817397;-67
2023/11/23 11:28:33;;;;;;;17.07;10.27;;;;;;;;;;784921;177;819215;-66
2023/11/23 11:31:06;;;;;;;17.17;9.87;;;;;;;;;;768611;179;920314;-68
2023/11/23 11:33:32;;;;;;;15.50;8.90;;;;;;;;;;778707;179;917067;-68
2023/11/23 11:35:57;;;;;;;18.45;9.77;;;;;;;;;;778986;179;917414;-68
2023/11/23 11:38:23;;;;;;;16.73;10.00;;;;;;;;;;782315;178;819580;-66
2023/11/23 11:40:49;;;;;;;15.60;9.30;;;;;;;;;;776059;178;822205;-68
2023/11/23 11:43:15;;;;;;;19.30;10.00;;;;;;;;;;779015;178;920244;-67
2023/11/23 11:45:41;;;;;;;14.20;8.80;;;;;;;;;;784145;178;632537;-66
2023/11/23 11:48:06;;;;;;;15.20;8.27;;;;;;;;;;772500;178;919296;-66
2023/11/23 11:50:32;;;;;;;16.03;8.87;;;;;;;;;;776800;178;941373;-67
2023/11/23 11:52:58;;;;;;;13.37;8.23;;;;;;;;;;782023;178;816762;-67
2023/11/23 11:55:24;;;;;;;15.20;9.23;;;;;;;;;;783290;179;916365;-67
2023/11/23 11:57:50;;;;;;;15.17;8.67;;;;;;;;;;775483;179;932747;-66
2023/11/23 12:00:16;;;;;;;15.43;8.23;;;;;;;;;;773678;179;919773;-66
2023/11/23 12:02:42;;;;;;;15.63;8.67;;;;;;;;;;781394;177;919000;-67
2023/11/23 12:05:09;;;;;;;18.67;8.77;;;;;;;;;;775459;179;917717;-67
2023/11/23 12:07:35;;;;;;;17.13;8.70;;;;;;;;;;775172;175;920120;-64
2023/11/23 12:10:01;;;;;;;13.27;9.10;;;;;;;;;;780196;179;811207;-66
2023/11/23 12:12:27;;;;;;;14.30;8.83;;;;;;;;;;773671;179;919206;-65
2023/11/23 12:14:53;;;;;;;15.53;8.80;;;;;;;;;;775125;179;921839;-66
2023/11/23 12:17:19;;;;;;;14.07;8.37;;;;;;;;;;776409;177;918598;-67
2023/11/23 12:19:50;;;;;;;15.83;7.70;;;;;;;;;;769022;180;919998;-67
2023/11/23 12:22:15;;;;;;;12.60;8.23;;;;;;;;;;774426;177;918411;-66
2023/11/23 12:24:42;;;;;;;13.30;8.20;;;;;;;;;;775393;179;915258;-66
2023/11/23 12:27:07;;;;;;;14.20;8.23;;;;;;;;;;784128;178;816500;-68
2023/11/23 12:29:32;;;;;;;16.27;8.80;;;;;;;;;;775098;179;919854;-66
2023/11/23 12:31:59;;;;;;;14.20;6.90;;;;;;;;;;774694;179;919594;-65
2023/11/23 12:34:25;;;;;;;15.38;8.32;;;;;;;;;;777245;179;917022;-66
2023/11/23 12:36:51;;;;;;;12.27;8.40;;;;;;;;;;773489;179;921693;-67
2023/11/23 12:39:17;;;;;;;12.33;7.70;;;;;;;;;;775739;179;915406;-66
2023/11/23 12:41:44;;;;;;;12.10;7.67;;;;;;;;;;776094;179;920363;-66
2023/11/23 12:44:09;;;;;;;9.27;6.77;;;;;;;;;;781752;179;922192;-68
2023/11/23 12:46:34;;;;;;;16.23;7.77;;;;;;;;;;778352;176;918499;-66
2023/11/23 12:49:00;;;;;;;10.57;7.23;;;;;;;;;;785054;175;818746;-67
2023/11/23 12:51:26;;;;;;;12.60;8.00;;;;;;;;;;779218;178;891385;-65
2023/11/23 12:53:52;;;;;;;12.50;7.30;;;;;;;;;;779934;177;927692;-68
2023/11/23 12:56:17;;;;;;;11.30;6.50;;;;;;;;;;780199;178;884462;-66
2023/11/23 12:58:43;;;;;;;12.80;7.30;;;;;;;;;;786388;176;815466;-67
2023/11/23 13:01:10;;;;;;;12.00;7.43;;;;;;;;;;776467;178;936519;-68
2023/11/23 13:03:36;;;;;;;12.03;7.43;;;;;;;;;;775694;178;936778;-67
2023/11/23 13:06:03;;;;;;;14.13;7.93;;;;;;;;;;774635;179;1017029;-66
2023/11/23 13:08:30;;;;;;;12.90;7.33;;;;;;;;;;780456;177;921104;-66
2023/11/23 13:10:56;;;;;;;10.90;6.33;;;;;;;;;;777759;179;921507;-66
2023/11/23 13:13:22;;;;;;;10.00;6.50;;;;;;;;;;774359;179;1021235;-66
2023/11/23 13:15:47;;;;;;;10.07;7.33;;;;;;;;;;783903;179;818507;-67
2023/11/23 13:18:13;;;;;;;11.10;7.70;;;;;;;;;;777396;179;920544;-67
2023/11/23 13:20:39;;;;;;;10.30;7.30;;;;;;;;;;772917;179;919193;-67
2023/11/23 13:23:06;;;;;;;15.15;8.18;;;;;;;;;;784007;178;860717;-68
2023/11/23 13:25:32;;;;;;;10.50;7.60;;;;;;;;;;774715;179;934939;-67
2023/11/23 13:27:58;;;;;;;14.23;7.10;;;;;;;;;;775870;177;920571;-67
2023/11/23 13:30:24;;;;;;;14.40;7.40;;;;;;;;;;778916;179;919190;-66
2023/11/23 13:32:50;;;;;;;10.70;6.83;;;;;;;;;;778567;179;818581;-68
2023/11/23 13:35:14;;;;;;;10.07;7.30;;;;;;;;;;773365;179;932966;-66
2023/11/23 13:37:40;;;;;;;12.67;7.10;;;;;;;;;;773010;178;873309;-66
2023/11/23 13:40:07;;;;;;;11.03;6.80;;;;;;;;;;783127;179;865299;-66
2023/11/23 13:42:33;;;;;;;10.10;6.30;;;;;;;;;;777524;179;815493;-68
2023/11/23 13:44:58;;;;;;;14.40;7.93;;;;;;;;;;777363;179;918859;-66
2023/11/23 13:47:24;;;;;;;11.30;5.93;;;;;;;;;;783087;179;914103;-66
2023/11/23 13:49:50;;;;;;;8.97;5.60;;;;;;;;;;773277;179;915017;-67
2023/11/23 13:52:17;;;;;;;9.80;6.33;;;;;;;;;;778132;177;912226;-67
2023/11/23 13:54:42;;;;;;;9.07;5.40;;;;;;;;;;772839;179;923349;-66
2023/11/23 13:57:08;;;;;;;8.70;5.47;;;;;;;;;;777904;178;818489;-66
2023/11/23 13:59:34;;;;;;;12.27;6.67;;;;;;;;;;777757;178;899557;-68